KATLKALX

Guest
Details From KATL - Hartsfield Jackson Atlanta Intl
To KALX - THOMAS C RUSSELL FLD
Flight Number -
Tags decoded
Created
Modified
Stats Distance 91 nm / 169 km
Max Altitude 0 ft / 0 m
Waypoints 3
Social Downloads 1
Likes 0
Share VATSIM

Download

Looking for another format? Having issues loading an existing format? Contact us
Advertisement - Login to hide

Notes

Requested: KATL WEONE KALX

Route

KATL WEONE KALX

ID Type Via Altitude Latitude Longitude Leg Dist Tot Dist Heading (true) Name
O KATL APT - 0 ft / 0 m 33.63662˚ -84.42821˚ - 0 nm - Hartsfield Jackson Atlanta Intl
WEONE FIX - 0 ft / 0 m 33.52569˚ -85.12225˚ 35 nm 35 nm 259° / 259° -
O KALX APT - 0 ft / 0 m 32.91474˚ -85.96296˚ 55 nm 91 nm 229° / 229° THOMAS C RUSSELL FLD

Altitude Profile

Advertisement - Login to hide

KATL

Details ICAO KATL (ATL)
Name Hartsfield Jackson Atlanta Intl
Region United States
Timezone America/New_York (UTC-5.0)
Stats Elevation 1,026 ft / 313 m (AMSL)
Location 33.636623° -84.428207°
Runways 5
Magnetic Variation 5.095° W

METAR

KATL 181952Z 30009KT 10SM FEW015 SCT070 BKN110 BKN250 16/13 A3017 RMK AO2 SLP215 T01610128

Decode

TAF

TAF AMD KATL 181936Z 1820/1924 27008KT P6SM VCSH FEW012 SCT050 BKN080 FM182300 28005KT P6SM SCT070 BKN250 FM190300 28004KT 3SM BR BKN250 FM190900 29004KT 1SM BR SCT002 BKN250 FM191500 28004KT 5SM BR SCT005 BKN120 FM191900 28005KT P6SM -RA SCT015 BKN035

Decode

Departure Runways

ID Width Length Bearing (true) Bearing (mag) Surface Threshold Offset Overrun Length
08L 151 ft / 46 m 8,983 ft / 2,738 m 89.97° 95.06° Concrete 0 ft / 0 m 394 ft / 120 m
08R 151 ft / 46 m 9,980 ft / 3,042 m 89.97° 95.06° Concrete 0 ft / 0 m 394 ft / 120 m
09L 151 ft / 46 m 11,866 ft / 3,617 m 90.00° 95.09° Concrete 0 ft / 0 m 394 ft / 120 m
09R 151 ft / 46 m 8,983 ft / 2,738 m 89.97° 95.06° Concrete 0 ft / 0 m 230 ft / 70 m
10 151 ft / 46 m 8,982 ft / 2,738 m 89.96° 95.05° Concrete 0 ft / 0 m 394 ft / 120 m
26L 151 ft / 46 m 9,980 ft / 3,042 m 269.99° 275.08° Concrete 0 ft / 0 m 394 ft / 120 m
26R 151 ft / 46 m 8,983 ft / 2,738 m 269.99° 275.08° Concrete 0 ft / 0 m 394 ft / 120 m
27L 151 ft / 46 m 8,983 ft / 2,738 m 269.99° 275.08° Concrete 0 ft / 0 m 197 ft / 60 m
27R 151 ft / 46 m 11,866 ft / 3,617 m 270.02° 275.11° Concrete 0 ft / 0 m 394 ft / 120 m
28 151 ft / 46 m 8,982 ft / 2,738 m 269.98° 275.07° Concrete 0 ft / 0 m 394 ft / 120 m

KALX

Details ICAO KALX
Name THOMAS C RUSSELL FLD
Region United States
Timezone America/Chicago (UTC-6.0)
Stats Elevation 686 ft / 209 m (AMSL)
Location 32.914743° -85.962956°
Runways 1
Magnetic Variation 3.942° W

METAR

KALX 182035Z AUTO 31004KT 10SM SCT048 BKN050 BKN070 16/14 A3019 RMK AO2 T01560136

Decode

TAF

Not found

Destination Runways

ID Width Length Bearing (true) Bearing (mag) Surface Threshold Offset Overrun Length
18 96 ft / 29 m 5,441 ft / 1,659 m 177.54° 181.48° Asphalt 619 ft / 189 m 0 ft / 0 m
36 96 ft / 29 m 5,441 ft / 1,659 m 357.54° 1.48° Asphalt 0 ft / 0 m 0 ft / 0 m